Airfield :
LOGIN :

Register | Disclaimer

   EN    FR    IT 

 










Legend :    VFR   Marginal VFR   IFR   Intensive IFR   Very Intensive IFR
Visi :
Ceiling :
>= 8 km
>= 3000ft
5 to 8 km
1000 to 3000 ft
1500m to 5 km
500 to 1000 ft
800 to 1500m
200 to 500 ft
< 800m
< 200 ft
Symbols :   Thunderstorms  Fog  Heavy snow  Heavy precipitations  Wind > 20 kt
SIGMETs :     Misc.  Thunderstorms  Icing  Turbulence  Mountain Waves  Volcanic Ashes







- Airport Elevation : 302 ft
- IATA code : MAH


LEMH - Menorca

CURRENT METAR :
  • 211530Z 18006KT 150V230 9999 FEW030 23/16 Q1018

EXPIRED METARs :
  • 211500Z 21005KT 160V250 9999 FEW030 24/15 Q1018
  • 211430Z 22007KT 170V280 9999 FEW030 24/16 Q1018
  • 211400Z 22006KT 150V270 9999 FEW030 24/16 Q1018
  • 211330Z 22007KT 180V270 9999 FEW030 24/15 Q1019
  • 211300Z 20008KT 160V240 9999 FEW030 23/15 Q1019

TAF TAF LEMH
Valid from the 21 at 15:00 until the 22 at 15:00 UTC


211400Z 2115/2215 18010KT 9999 SCT030 TX25/2212Z TN18/2206Z
BECMG 2116/2118 11008KT
BECMG 2206/2208 06010KT
No reported NOTAMs for that airfield.



MET'MAP, your aeronautical weather chart ! - Copyright ORBIFLY December 2007 - Disclaimer

ORBIFLY MET'MAP TEAM :

Programming & Development : Alexandra Zaïnal
Concept & Development : Baudouin d'Aumeries
Co-Development & Prog : Marc-Olivier Méhu
Technical & hardware support : Manuel Goepfert

Contact : metmap@orbifly.com




SOURCES & CREDITS :

   NOAA